sensor_id;sensor_type;location;lat;lon;timestamp;pressure;altitude;pressure_sealevel;temperature;humidity
11190;BME280;5651;50.926;4.718;2023-04-09T00:01:54;102372.81;;;4.99;73.70
11190;BME280;5651;50.926;4.718;2023-04-09T00:04:20;102381.38;;;4.98;74.01
11190;BME280;5651;50.926;4.718;2023-04-09T00:06:47;102376.06;;;4.95;72.71
11190;BME280;5651;50.926;4.718;2023-04-09T00:09:12;102375.16;;;4.93;73.11
11190;BME280;5651;50.926;4.718;2023-04-09T00:11:38;102383.72;;;4.92;73.44
11190;BME280;5651;50.926;4.718;2023-04-09T00:14:04;102377.59;;;4.90;73.93
11190;BME280;5651;50.926;4.718;2023-04-09T00:16:30;102370.59;;;4.87;73.94
11190;BME280;5651;50.926;4.718;2023-04-09T00:18:56;102379.03;;;4.83;73.47
11190;BME280;5651;50.926;4.718;2023-04-09T00:21:22;102374.59;;;4.81;73.54
11190;BME280;5651;50.926;4.718;2023-04-09T00:23:48;102377.06;;;4.78;73.07
11190;BME280;5651;50.926;4.718;2023-04-09T00:26:14;102373.53;;;4.75;73.65
11190;BME280;5651;50.926;4.718;2023-04-09T00:28:39;102370.88;;;4.74;72.93
11190;BME280;5651;50.926;4.718;2023-04-09T00:31:06;102368.19;;;4.72;71.91
11190;BME280;5651;50.926;4.718;2023-04-09T00:33:32;102365.63;;;4.72;72.29
11190;BME280;5651;50.926;4.718;2023-04-09T00:35:58;102370.78;;;4.72;72.70
11190;BME280;5651;50.926;4.718;2023-04-09T00:38:23;102364.69;;;4.70;73.69
11190;BME280;5651;50.926;4.718;2023-04-09T00:40:50;102369.75;;;4.69;75.06
11190;BME280;5651;50.926;4.718;2023-04-09T00:43:16;102354.97;;;4.65;76.22
11190;BME280;5651;50.926;4.718;2023-04-09T00:45:43;102352.19;;;4.60;75.78
11190;BME280;5651;50.926;4.718;2023-04-09T00:48:10;102356.31;;;4.56;75.95
11190;BME280;5651;50.926;4.718;2023-04-09T00:50:36;102351.75;;;4.51;75.69
11190;BME280;5651;50.926;4.718;2023-04-09T00:53:02;102354.22;;;4.48;74.87
11190;BME280;5651;50.926;4.718;2023-04-09T00:55:28;102346.31;;;4.44;75.02
11190;BME280;5651;50.926;4.718;2023-04-09T00:57:54;102347.06;;;4.42;74.55
11190;BME280;5651;50.926;4.718;2023-04-09T01:00:20;102349.50;;;4.39;74.32
11190;BME280;5651;50.926;4.718;2023-04-09T01:02:47;102351.22;;;4.38;74.69
11190;BME280;5651;50.926;4.718;2023-04-09T01:05:14;102350.34;;;4.38;75.14
11190;BME280;5651;50.926;4.718;2023-04-09T01:08:00;102343.25;;;4.34;76.03
11190;BME280;5651;50.926;4.718;2023-04-09T01:10:39;102350.03;;;4.32;76.57
11190;BME280;5651;50.926;4.718;2023-04-09T01:13:19;102351.53;;;4.26;76.85
11190;BME280;5651;50.926;4.718;2023-04-09T01:15:55;102335.03;;;4.23;76.11
11190;BME280;5651;50.926;4.718;2023-04-09T01:18:42;102344.41;;;4.21;75.61
11190;BME280;5651;50.926;4.718;2023-04-09T01:21:12;102342.56;;;4.18;75.54
11190;BME280;5651;50.926;4.718;2023-04-09T01:28:59;102343.91;;;4.10;75.45
11190;BME280;5651;50.926;4.718;2023-04-09T01:31:33;102349.88;;;4.09;75.36
11190;BME280;5651;50.926;4.718;2023-04-09T01:34:00;102349.81;;;4.07;75.59
11190;BME280;5651;50.926;4.718;2023-04-09T01:36:27;102341.91;;;4.04;75.66
11190;BME280;5651;50.926;4.718;2023-04-09T01:38:56;102345.34;;;4.03;76.23
11190;BME280;5651;50.926;4.718;2023-04-09T01:41:23;102344.38;;;4.01;76.07
11190;BME280;5651;50.926;4.718;2023-04-09T01:43:51;102345.97;;;3.99;75.77
11190;BME280;5651;50.926;4.718;2023-04-09T01:46:18;102349.38;;;3.98;75.91
11190;BME280;5651;50.926;4.718;2023-04-09T01:48:45;102340.69;;;3.96;75.98
11190;BME280;5651;50.926;4.718;2023-04-09T01:51:14;102343.19;;;3.94;75.55
11190;BME280;5651;50.926;4.718;2023-04-09T01:53:41;102337.97;;;3.93;76.51
11190;BME280;5651;50.926;4.718;2023-04-09T01:56:08;102344.84;;;3.92;76.34
11190;BME280;5651;50.926;4.718;2023-04-09T01:58:34;102344.84;;;3.92;76.56
11190;BME280;5651;50.926;4.718;2023-04-09T02:01:13;102337.91;;;3.91;76.27
11190;BME280;5651;50.926;4.718;2023-04-09T02:04:13;102340.38;;;3.90;76.24
11190;BME280;5651;50.926;4.718;2023-04-09T02:09:43;102339.69;;;3.92;75.73
11190;BME280;5651;50.926;4.718;2023-04-09T02:12:13;102332.88;;;3.94;75.49
11190;BME280;5651;50.926;4.718;2023-04-09T02:14:41;102336.47;;;3.98;74.69
11190;BME280;5651;50.926;4.718;2023-04-09T02:17:08;102329.75;;;4.02;75.32
11190;BME280;5651;50.926;4.718;2023-04-09T02:22:04;102328.59;;;4.13;75.87
11190;BME280;5651;50.926;4.718;2023-04-09T02:24:30;102324.56;;;4.20;75.76
11190;BME280;5651;50.926;4.718;2023-04-09T02:26:56;102319.72;;;4.26;76.15
11190;BME280;5651;50.926;4.718;2023-04-09T02:29:22;102319.97;;;4.32;75.62
11190;BME280;5651;50.926;4.718;2023-04-09T02:31:48;102325.47;;;4.40;75.13
11190;BME280;5651;50.926;4.718;2023-04-09T02:34:18;102319.00;;;4.50;76.12
11190;BME280;5651;50.926;4.718;2023-04-09T02:36:44;102316.84;;;4.59;76.54
11190;BME280;5651;50.926;4.718;2023-04-09T02:39:09;102314.69;;;4.68;76.46
11190;BME280;5651;50.926;4.718;2023-04-09T02:41:35;102310.59;;;4.73;75.61
11190;BME280;5651;50.926;4.718;2023-04-09T02:44:01;102311.81;;;4.82;76.20
11190;BME280;5651;50.926;4.718;2023-04-09T02:46:27;102319.00;;;4.89;76.47
11190;BME280;5651;50.926;4.718;2023-04-09T02:48:53;102306.28;;;4.94;75.99
11190;BME280;5651;50.926;4.718;2023-04-09T02:51:19;102308.19;;;4.98;75.29
11190;BME280;5651;50.926;4.718;2023-04-09T02:53:45;102307.44;;;5.00;75.20
11190;BME280;5651;50.926;4.718;2023-04-09T02:56:11;102310.06;;;5.02;74.96
11190;BME280;5651;50.926;4.718;2023-04-09T02:58:37;102302.38;;;5.03;74.52
11190;BME280;5651;50.926;4.718;2023-04-09T03:01:02;102306.69;;;5.03;75.03
11190;BME280;5651;50.926;4.718;2023-04-09T03:03:29;102303.19;;;5.02;76.17
11190;BME280;5651;50.926;4.718;2023-04-09T03:05:56;102303.06;;;4.99;77.00
11190;BME280;5651;50.926;4.718;2023-04-09T03:08:22;102298.59;;;4.95;76.74
11190;BME280;5651;50.926;4.718;2023-04-09T03:10:48;102301.00;;;4.90;76.28
11190;BME280;5651;50.926;4.718;2023-04-09T03:13:14;102296.50;;;4.86;76.74
11190;BME280;5651;50.926;4.718;2023-04-09T03:15:39;102293.81;;;4.83;76.72
11190;BME280;5651;50.926;4.718;2023-04-09T03:18:06;102292.66;;;4.76;76.66
11190;BME280;5651;50.926;4.718;2023-04-09T03:20:31;102287.44;;;4.75;78.60
11190;BME280;5651;50.926;4.718;2023-04-09T03:22:57;102289.00;;;4.71;78.33
11190;BME280;5651;50.926;4.718;2023-04-09T03:25:23;102285.31;;;4.66;78.00
11190;BME280;5651;50.926;4.718;2023-04-09T03:27:49;102284.31;;;4.63;78.66
11190;BME280;5651;50.926;4.718;2023-04-09T03:30:15;102275.50;;;4.57;78.70
11190;BME280;5651;50.926;4.718;2023-04-09T03:32:40;102279.63;;;4.54;77.65
11190;BME280;5651;50.926;4.718;2023-04-09T03:35:07;102279.44;;;4.49;78.47
11190;BME280;5651;50.926;4.718;2023-04-09T03:37:32;102276.69;;;4.46;81.51
11190;BME280;5651;50.926;4.718;2023-04-09T03:39:58;102279.22;;;4.44;82.36
11190;BME280;5651;50.926;4.718;2023-04-09T03:42:24;102278.25;;;4.42;82.58
11190;BME280;5651;50.926;4.718;2023-04-09T03:44:52;102283.38;;;4.41;84.23
11190;BME280;5651;50.926;4.718;2023-04-09T03:47:18;102277.25;;;4.39;86.27
11190;BME280;5651;50.926;4.718;2023-04-09T03:49:45;102272.78;;;4.35;83.77
11190;BME280;5651;50.926;4.718;2023-04-09T03:52:10;102267.47;;;4.32;82.80
11190;BME280;5651;50.926;4.718;2023-04-09T03:54:36;102266.53;;;4.30;82.32
11190;BME280;5651;50.926;4.718;2023-04-09T03:57:02;102261.19;;;4.25;82.18
11190;BME280;5651;50.926;4.718;2023-04-09T03:59:29;102266.94;;;4.19;81.40
11190;BME280;5651;50.926;4.718;2023-04-09T04:01:54;102268.50;;;4.16;81.72
11190;BME280;5651;50.926;4.718;2023-04-09T04:04:20;102266.59;;;4.11;81.11
11190;BME280;5651;50.926;4.718;2023-04-09T04:06:46;102264.63;;;4.06;81.38
11190;BME280;5651;50.926;4.718;2023-04-09T04:09:12;102267.00;;;4.01;79.30
11190;BME280;5651;50.926;4.718;2023-04-09T04:11:38;102265.06;;;3.97;77.90
11190;BME280;5651;50.926;4.718;2023-04-09T04:14:03;102269.41;;;3.98;86.49
11190;BME280;5651;50.926;4.718;2023-04-09T04:16:29;102273.44;;;3.91;85.20
11190;BME280;5651;50.926;4.718;2023-04-09T04:18:55;102268.94;;;3.87;84.15
11190;BME280;5651;50.926;4.718;2023-04-09T04:21:21;102271.28;;;3.83;82.71
11190;BME280;5651;50.926;4.718;2023-04-09T04:23:47;102272.84;;;3.79;82.24
11190;BME280;5651;50.926;4.718;2023-04-09T04:26:13;102264.03;;;3.74;81.63
11190;BME280;5651;50.926;4.718;2023-04-09T04:28:40;102262.19;;;3.71;81.68
11190;BME280;5651;50.926;4.718;2023-04-09T04:31:10;102265.44;;;3.67;81.36
11190;BME280;5651;50.926;4.718;2023-04-09T04:33:36;102266.16;;;3.64;81.48
11190;BME280;5651;50.926;4.718;2023-04-09T04:36:13;102260.72;;;3.58;80.74
11190;BME280;5651;50.926;4.718;2023-04-09T04:38:39;102271.78;;;3.56;80.40
11190;BME280;5651;50.926;4.718;2023-04-09T04:41:09;102272.66;;;3.56;82.53
11190;BME280;5651;50.926;4.718;2023-04-09T04:43:35;102278.56;;;3.54;81.83
11190;BME280;5651;50.926;4.718;2023-04-09T04:46:01;102271.63;;;3.53;82.52
11190;BME280;5651;50.926;4.718;2023-04-09T04:48:27;102275.84;;;3.51;83.32
11190;BME280;5651;50.926;4.718;2023-04-09T04:50:58;102269.56;;;3.45;83.30
11190;BME280;5651;50.926;4.718;2023-04-09T04:53:24;102276.25;;;3.42;82.46
11190;BME280;5651;50.926;4.718;2023-04-09T04:55:50;102279.59;;;3.39;82.13
11190;BME280;5651;50.926;4.718;2023-04-09T04:58:16;102277.75;;;3.37;82.92
11190;BME280;5651;50.926;4.718;2023-04-09T05:00:42;102280.97;;;3.32;82.66
11190;BME280;5651;50.926;4.718;2023-04-09T05:03:08;102286.13;;;3.32;83.01
11190;BME280;5651;50.926;4.718;2023-04-09T05:05:33;102286.78;;;3.28;81.78
11190;BME280;5651;50.926;4.718;2023-04-09T05:07:59;102277.22;;;3.26;81.42
11190;BME280;5651;50.926;4.718;2023-04-09T05:10:25;102273.69;;;3.24;81.86
11190;BME280;5651;50.926;4.718;2023-04-09T05:12:51;102285.59;;;3.22;81.34
11190;BME280;5651;50.926;4.718;2023-04-09T05:15:17;102285.59;;;3.22;79.90
11190;BME280;5651;50.926;4.718;2023-04-09T05:17:43;102284.72;;;3.21;80.69
11190;BME280;5651;50.926;4.718;2023-04-09T05:20:10;102279.66;;;3.23;80.82
11190;BME280;5651;50.926;4.718;2023-04-09T05:22:36;102280.53;;;3.23;80.97
11190;BME280;5651;50.926;4.718;2023-04-09T05:25:02;102283.13;;;3.23;80.34
11190;BME280;5651;50.926;4.718;2023-04-09T05:27:28;102284.00;;;3.24;79.84
11190;BME280;5651;50.926;4.718;2023-04-09T05:29:54;102285.75;;;3.25;78.40
11190;BME280;5651;50.926;4.718;2023-04-09T05:32:20;102276.50;;;3.28;78.76
11190;BME280;5651;50.926;4.718;2023-04-09T05:34:46;102275.81;;;3.32;79.59
11190;BME280;5651;50.926;4.718;2023-04-09T05:37:12;102275.09;;;3.35;79.08
11190;BME280;5651;50.926;4.718;2023-04-09T05:39:38;102271.78;;;3.38;80.04
11190;BME280;5651;50.926;4.718;2023-04-09T05:42:04;102274.59;;;3.42;80.09
11190;BME280;5651;50.926;4.718;2023-04-09T05:44:30;102278.94;;;3.43;79.77
11190;BME280;5651;50.926;4.718;2023-04-09T05:46:56;102276.50;;;3.46;79.35
11190;BME280;5651;50.926;4.718;2023-04-09T05:49:22;102277.53;;;3.50;79.50
11190;BME280;5651;50.926;4.718;2023-04-09T05:51:49;102273.47;;;3.55;79.27
11190;BME280;5651;50.926;4.718;2023-04-09T05:54:15;102271.09;;;3.60;79.87
11190;BME280;5651;50.926;4.718;2023-04-09T05:56:42;102274.00;;;3.66;77.77
11190;BME280;5651;50.926;4.718;2023-04-09T05:59:08;102262.25;;;3.73;78.97
11190;BME280;5651;50.926;4.718;2023-04-09T06:01:33;102277.25;;;3.81;79.55
11190;BME280;5651;50.926;4.718;2023-04-09T06:03:59;102276.75;;;3.89;79.14
11190;BME280;5651;50.926;4.718;2023-04-09T06:06:25;102273.56;;;3.94;78.38
11190;BME280;5651;50.926;4.718;2023-04-09T06:08:51;102279.84;;;4.00;77.75
11190;BME280;5651;50.926;4.718;2023-04-09T06:11:17;102286.28;;;4.09;78.09
11190;BME280;5651;50.926;4.718;2023-04-09T06:13:43;102281.47;;;4.17;78.00
11190;BME280;5651;50.926;4.718;2023-04-09T06:16:09;102283.50;;;4.24;78.31
11190;BME280;5651;50.926;4.718;2023-04-09T06:18:35;102275.16;;;4.30;77.87
11190;BME280;5651;50.926;4.718;2023-04-09T06:21:06;102278.16;;;4.39;78.24
11190;BME280;5651;50.926;4.718;2023-04-09T06:23:35;102284.44;;;4.46;77.81
11190;BME280;5651;50.926;4.718;2023-04-09T06:26:01;102277.06;;;4.54;77.32
11190;BME280;5651;50.926;4.718;2023-04-09T06:28:27;102284.31;;;4.63;76.92
11190;BME280;5651;50.926;4.718;2023-04-09T06:30:54;102293.31;;;4.72;76.61
11190;BME280;5651;50.926;4.718;2023-04-09T06:33:20;102287.69;;;4.81;76.82
11190;BME280;5651;50.926;4.718;2023-04-09T06:35:47;102299.34;;;4.92;76.89
11190;BME280;5651;50.926;4.718;2023-04-09T06:38:14;102298.97;;;5.04;77.04
11190;BME280;5651;50.926;4.718;2023-04-09T06:40:40;102296.84;;;5.15;77.66
11190;BME280;5651;50.926;4.718;2023-04-09T06:43:06;102303.41;;;5.28;78.05
11190;BME280;5651;50.926;4.718;2023-04-09T06:45:32;102299.56;;;5.39;77.73
11190;BME280;5651;50.926;4.718;2023-04-09T06:47:59;102298.28;;;5.51;77.79
11190;BME280;5651;50.926;4.718;2023-04-09T06:50:25;102305.81;;;5.67;81.04
11190;BME280;5651;50.926;4.718;2023-04-09T06:52:51;102302.69;;;5.76;80.18
11190;BME280;5651;50.926;4.718;2023-04-09T06:55:17;102300.53;;;5.87;78.78
11190;BME280;5651;50.926;4.718;2023-04-09T06:57:43;102298.56;;;6.02;80.40
11190;BME280;5651;50.926;4.718;2023-04-09T07:00:09;102305.94;;;6.16;80.32
11190;BME280;5651;50.926;4.718;2023-04-09T07:02:36;102302.13;;;6.29;80.25
11190;BME280;5651;50.926;4.718;2023-04-09T07:05:04;102303.47;;;6.42;80.99
11190;BME280;5651;50.926;4.718;2023-04-09T07:07:30;102299.59;;;6.55;82.19
11190;BME280;5651;50.926;4.718;2023-04-09T07:09:56;102296.50;;;6.65;80.13
11190;BME280;5651;50.926;4.718;2023-04-09T07:12:29;102290.13;;;6.79;82.52
11190;BME280;5651;50.926;4.718;2023-04-09T07:14:59;102287.81;;;6.89;81.66
11190;BME280;5651;50.926;4.718;2023-04-09T07:17:25;102286.25;;;7.20;92.76
11190;BME280;5651;50.926;4.718;2023-04-09T07:19:51;102284.63;;;7.23;89.67
11190;BME280;5651;50.926;4.718;2023-04-09T07:22:20;102290.03;;;7.29;91.41
11190;BME280;5651;50.926;4.718;2023-04-09T07:24:46;102299.88;;;7.40;86.37
11190;BME280;5651;50.926;4.718;2023-04-09T07:27:25;102294.34;;;7.56;90.25
11190;BME280;5651;50.926;4.718;2023-04-09T07:29:56;102293.91;;;7.71;90.09
11190;BME280;5651;50.926;4.718;2023-04-09T07:32:23;102292.50;;;7.81;86.85
11190;BME280;5651;50.926;4.718;2023-04-09T07:34:52;102293.66;;;7.91;83.57
11190;BME280;5651;50.926;4.718;2023-04-09T07:37:19;102297.53;;;8.05;83.18
11190;BME280;5651;50.926;4.718;2023-04-09T07:39:45;102294.47;;;8.19;85.52
11190;BME280;5651;50.926;4.718;2023-04-09T07:42:12;102286.16;;;8.31;85.05
11190;BME280;5651;50.926;4.718;2023-04-09T07:44:38;102300.31;;;8.42;84.01
11190;BME280;5651;50.926;4.718;2023-04-09T07:47:06;102294.66;;;8.55;82.98
11190;BME280;5651;50.926;4.718;2023-04-09T07:49:34;102295.97;;;8.73;87.52
11190;BME280;5651;50.926;4.718;2023-04-09T07:52:00;102294.56;;;8.84;84.41
11190;BME280;5651;50.926;4.718;2023-04-09T07:54:26;102293.28;;;9.02;88.23
11190;BME280;5651;50.926;4.718;2023-04-09T07:56:53;102299.59;;;9.13;89.64
11190;BME280;5651;50.926;4.718;2023-04-09T07:59:19;102288.66;;;9.27;90.27
11190;BME280;5651;50.926;4.718;2023-04-09T08:01:45;102290.56;;;9.34;89.14
11190;BME280;5651;50.926;4.718;2023-04-09T08:04:11;102285.06;;;9.58;93.56
11190;BME280;5651;50.926;4.718;2023-04-09T08:06:37;102277.44;;;9.67;93.27
11190;BME280;5651;50.926;4.718;2023-04-09T08:09:03;102291.63;;;9.80;94.11
11190;BME280;5651;50.926;4.718;2023-04-09T08:11:29;102288.38;;;9.91;89.54
11190;BME280;5651;50.926;4.718;2023-04-09T08:13:55;102286.94;;;10.05;90.12
11190;BME280;5651;50.926;4.718;2023-04-09T08:16:22;102276.84;;;10.21;87.93
11190;BME280;5651;50.926;4.718;2023-04-09T08:18:49;102279.69;;;10.33;89.96
11190;BME280;5651;50.926;4.718;2023-04-09T08:21:17;102279.09;;;10.45;87.70
11190;BME280;5651;50.926;4.718;2023-04-09T08:23:43;102284.50;;;10.56;88.83
11190;BME280;5651;50.926;4.718;2023-04-09T08:26:09;102285.53;;;10.66;87.93
11190;BME280;5651;50.926;4.718;2023-04-09T08:28:35;102279.66;;;10.77;88.02
11190;BME280;5651;50.926;4.718;2023-04-09T08:31:02;102280.97;;;11.03;83.88
11190;BME280;5651;50.926;4.718;2023-04-09T08:33:27;102285.31;;;11.01;87.67
11190;BME280;5651;50.926;4.718;2023-04-09T08:35:53;102287.38;;;11.22;84.57
11190;BME280;5651;50.926;4.718;2023-04-09T08:38:19;102285.72;;;11.27;85.21
11190;BME280;5651;50.926;4.718;2023-04-09T08:40:45;102283.13;;;11.27;87.16
11190;BME280;5651;50.926;4.718;2023-04-09T08:43:14;102289.59;;;11.51;83.09
11190;BME280;5651;50.926;4.718;2023-04-09T08:45:41;102292.25;;;11.55;84.11
11190;BME280;5651;50.926;4.718;2023-04-09T08:48:12;102282.81;;;11.65;84.97
11190;BME280;5651;50.926;4.718;2023-04-09T08:50:38;102280.34;;;11.76;83.48
11190;BME280;5651;50.926;4.718;2023-04-09T08:53:05;102284.81;;;11.86;82.66
11190;BME280;5651;50.926;4.718;2023-04-09T08:55:33;102275.28;;;11.88;83.75
11190;BME280;5651;50.926;4.718;2023-04-09T08:58:05;102272.91;;;12.02;83.23
11190;BME280;5651;50.926;4.718;2023-04-09T09:00:35;102270.34;;;12.09;83.71
11190;BME280;5651;50.926;4.718;2023-04-09T09:03:06;102271.38;;;12.22;82.72
11190;BME280;5651;50.926;4.718;2023-04-09T09:05:43;102276.63;;;12.25;82.88
11190;BME280;5651;50.926;4.718;2023-04-09T09:08:13;102274.19;;;12.37;82.18
11190;BME280;5651;50.926;4.718;2023-04-09T09:10:47;102272.47;;;12.44;83.19
11190;BME280;5651;50.926;4.718;2023-04-09T09:13:16;102269.91;;;12.47;82.59
11190;BME280;5651;50.926;4.718;2023-04-09T09:15:42;102277.06;;;12.63;81.23
11190;BME280;5651;50.926;4.718;2023-04-09T09:18:08;102271.78;;;12.60;83.84
11190;BME280;5651;50.926;4.718;2023-04-09T09:20:34;102274.50;;;12.70;84.82
11190;BME280;5651;50.926;4.718;2023-04-09T09:23:01;102277.22;;;12.79;84.52
11190;BME280;5651;50.926;4.718;2023-04-09T09:25:27;102271.97;;;12.79;84.83
11190;BME280;5651;50.926;4.718;2023-04-09T09:28:06;102266.00;;;12.95;85.28
11190;BME280;5651;50.926;4.718;2023-04-09T09:30:32;102267.91;;;13.18;84.54
11190;BME280;5651;50.926;4.718;2023-04-09T09:33:10;102264.53;;;13.28;84.77
11190;BME280;5651;50.926;4.718;2023-04-09T09:35:47;102268.03;;;13.34;82.58
11190;BME280;5651;50.926;4.718;2023-04-09T09:38:16;102266.28;;;13.31;83.29
11190;BME280;5651;50.926;4.718;2023-04-09T09:40:43;102260.16;;;13.26;82.03
11190;BME280;5651;50.926;4.718;2023-04-09T09:43:09;102262.94;;;13.49;82.82
11190;BME280;5651;50.926;4.718;2023-04-09T09:45:36;102258.66;;;13.60;82.08
11190;BME280;5651;50.926;4.718;2023-04-09T09:48:04;102257.78;;;13.65;81.18
11190;BME280;5651;50.926;4.718;2023-04-09T09:50:31;102257.91;;;13.83;79.83
11190;BME280;5651;50.926;4.718;2023-04-09T09:53:05;102250.88;;;13.76;81.18
11190;BME280;5651;50.926;4.718;2023-04-09T09:55:34;102243.03;;;13.81;81.37
11190;BME280;5651;50.926;4.718;2023-04-09T09:58:11;102235.25;;;14.02;80.55
11190;BME280;5651;50.926;4.718;2023-04-09T10:00:42;102236.16;;;14.04;80.42
11190;BME280;5651;50.926;4.718;2023-04-09T10:03:20;102239.66;;;14.11;81.21
11190;BME280;5651;50.926;4.718;2023-04-09T10:05:48;102237.09;;;14.23;80.85
11190;BME280;5651;50.926;4.718;2023-04-09T10:08:15;102229.25;;;14.59;77.81
11190;BME280;5651;50.926;4.718;2023-04-09T10:10:41;102217.00;;;14.50;80.07
11190;BME280;5651;50.926;4.718;2023-04-09T10:13:31;102227.47;;;14.41;80.76
11190;BME280;5651;50.926;4.718;2023-04-09T10:15:58;102224.88;;;14.58;81.13
11190;BME280;5651;50.926;4.718;2023-04-09T10:18:24;102221.44;;;14.68;80.49
11190;BME280;5651;50.926;4.718;2023-04-09T10:20:58;102215.31;;;14.83;80.21
11190;BME280;5651;50.926;4.718;2023-04-09T10:23:33;102206.53;;;15.12;73.10
11190;BME280;5651;50.926;4.718;2023-04-09T10:26:00;102215.28;;;14.97;76.35
11190;BME280;5651;50.926;4.718;2023-04-09T10:28:27;102210.03;;;14.93;77.92
11190;BME280;5651;50.926;4.718;2023-04-09T10:30:53;102211.78;;;15.23;74.13
11190;BME280;5651;50.926;4.718;2023-04-09T10:33:24;102211.72;;;15.35;73.39
11190;BME280;5651;50.926;4.718;2023-04-09T10:35:55;102203.03;;;15.19;74.81
11190;BME280;5651;50.926;4.718;2023-04-09T10:38:44;102200.38;;;15.32;74.78
11190;BME280;5651;50.926;4.718;2023-04-09T10:41:21;102193.38;;;15.23;73.56
11190;BME280;5651;50.926;4.718;2023-04-09T10:43:47;102194.19;;;15.44;74.99
11190;BME280;5651;50.926;4.718;2023-04-09T10:46:31;102192.41;;;15.58;74.64
11190;BME280;5651;50.926;4.718;2023-04-09T10:49:17;102188.06;;;15.51;74.14
11190;BME280;5651;50.926;4.718;2023-04-09T10:52:08;102188.00;;;15.65;75.24
11190;BME280;5651;50.926;4.718;2023-04-09T10:54:45;102191.44;;;15.90;75.32
11190;BME280;5651;50.926;4.718;2023-04-09T10:57:16;102186.13;;;15.96;69.84
11190;BME280;5651;50.926;4.718;2023-04-09T10:59:53;102186.97;;;16.08;73.32
11190;BME280;5651;50.926;4.718;2023-04-09T11:07:26;102182.22;;;16.55;72.61
11190;BME280;5651;50.926;4.718;2023-04-09T11:09:54;102176.88;;;16.66;73.26
11190;BME280;5651;50.926;4.718;2023-04-09T11:12:20;102175.81;;;16.87;73.30
11190;BME280;5651;50.926;4.718;2023-04-09T11:14:46;102163.44;;;16.98;71.38
11190;BME280;5651;50.926;4.718;2023-04-09T11:17:12;102162.50;;;17.07;70.90
11190;BME280;5651;50.926;4.718;2023-04-09T11:19:38;102155.13;;;17.37;72.71
11190;BME280;5651;50.926;4.718;2023-04-09T11:22:04;102146.25;;;17.46;70.53
11190;BME280;5651;50.926;4.718;2023-04-09T11:24:41;102143.19;;;17.75;72.60
11190;BME280;5651;50.926;4.718;2023-04-09T11:27:07;102155.63;;;17.65;70.43
11190;BME280;5651;50.926;4.718;2023-04-09T11:29:34;102156.72;;;17.49;69.29
11190;BME280;5651;50.926;4.718;2023-04-09T11:32:01;102154.63;;;17.76;69.87
11190;BME280;5651;50.926;4.718;2023-04-09T11:34:27;102150.28;;;17.71;68.38
11190;BME280;5651;50.926;4.718;2023-04-09T11:36:53;102147.59;;;17.76;67.11
11190;BME280;5651;50.926;4.718;2023-04-09T11:39:19;102148.69;;;17.61;65.64
11190;BME280;5651;50.926;4.718;2023-04-09T11:41:45;102146.50;;;17.91;65.48
11190;BME280;5651;50.926;4.718;2023-04-09T11:44:11;102140.09;;;18.11;68.56
11190;BME280;5651;50.926;4.718;2023-04-09T11:46:37;102143.66;;;18.08;65.45
11190;BME280;5651;50.926;4.718;2023-04-09T11:49:04;102146.69;;;18.38;66.07
11190;BME280;5651;50.926;4.718;2023-04-09T11:51:30;102144.47;;;18.66;65.51
11190;BME280;5651;50.926;4.718;2023-04-09T11:54:01;102137.13;;;18.84;65.96
11190;BME280;5651;50.926;4.718;2023-04-09T11:56:28;102142.81;;;19.11;67.43
11190;BME280;5651;50.926;4.718;2023-04-09T11:58:55;102140.66;;;19.30;65.97
11190;BME280;5651;50.926;4.718;2023-04-09T12:01:21;102132.22;;;19.55;65.08
11190;BME280;5651;50.926;4.718;2023-04-09T12:03:54;102134.78;;;19.59;64.17
11190;BME280;5651;50.926;4.718;2023-04-09T12:06:21;102137.03;;;19.76;64.54
11190;BME280;5651;50.926;4.718;2023-04-09T12:08:57;102138.31;;;19.57;62.98
11190;BME280;5651;50.926;4.718;2023-04-09T12:11:30;102139.19;;;19.59;60.17
11190;BME280;5651;50.926;4.718;2023-04-09T12:14:00;102135.50;;;19.66;61.26
11190;BME280;5651;50.926;4.718;2023-04-09T12:16:29;102137.25;;;19.67;61.41
11190;BME280;5651;50.926;4.718;2023-04-09T12:19:07;102123.34;;;19.57;60.77
11190;BME280;5651;50.926;4.718;2023-04-09T12:24:15;102132.13;;;19.58;55.07
11190;BME280;5651;50.926;4.718;2023-04-09T12:26:46;102132.13;;;19.59;58.19
11190;BME280;5651;50.926;4.718;2023-04-09T12:29:13;102134.19;;;19.87;56.49
11190;BME280;5651;50.926;4.718;2023-04-09T12:31:41;102128.38;;;20.09;56.32
11190;BME280;5651;50.926;4.718;2023-04-09T12:34:07;102120.75;;;20.33;58.93
11190;BME280;5651;50.926;4.718;2023-04-09T12:36:33;102127.06;;;20.62;53.87
11190;BME280;5651;50.926;4.718;2023-04-09T12:38:59;102115.53;;;21.29;57.28
11190;BME280;5651;50.926;4.718;2023-04-09T12:41:25;102116.19;;;21.37;54.38
11190;BME280;5651;50.926;4.718;2023-04-09T12:43:51;102126.34;;;20.91;50.79
11190;BME280;5651;50.926;4.718;2023-04-09T12:46:18;102119.50;;;21.14;51.63
11190;BME280;5651;50.926;4.718;2023-04-09T12:48:44;102113.59;;;21.65;53.92
11190;BME280;5651;50.926;4.718;2023-04-09T12:51:11;102114.25;;;21.72;53.05
11190;BME280;5651;50.926;4.718;2023-04-09T12:53:37;102110.81;;;21.38;50.59
11190;BME280;5651;50.926;4.718;2023-04-09T12:56:03;102113.31;;;21.13;50.93
11190;BME280;5651;50.926;4.718;2023-04-09T12:58:29;102114.66;;;20.98;49.99
11190;BME280;5651;50.926;4.718;2023-04-09T13:00:55;102110.63;;;20.83;50.06
11190;BME280;5651;50.926;4.718;2023-04-09T13:03:23;102119.63;;;20.41;51.54
11190;BME280;5651;50.926;4.718;2023-04-09T13:05:49;102116.81;;;20.49;52.40
11190;BME280;5651;50.926;4.718;2023-04-09T13:08:15;102115.34;;;20.37;51.05
11190;BME280;5651;50.926;4.718;2023-04-09T13:10:42;102110.31;;;20.61;53.17
11190;BME280;5651;50.926;4.718;2023-04-09T13:13:08;102111.31;;;21.21;54.58
11190;BME280;5651;50.926;4.718;2023-04-09T13:15:37;102094.88;;;21.70;52.35
11190;BME280;5651;50.926;4.718;2023-04-09T13:18:03;102100.00;;;21.46;48.77
11190;BME280;5651;50.926;4.718;2023-04-09T13:20:29;102096.31;;;21.50;50.41
11190;BME280;5651;50.926;4.718;2023-04-09T13:22:55;102095.03;;;21.35;48.74
11190;BME280;5651;50.926;4.718;2023-04-09T13:25:21;102093.34;;;21.63;51.95
11190;BME280;5651;50.926;4.718;2023-04-09T13:27:47;102094.41;;;21.56;48.80
11190;BME280;5651;50.926;4.718;2023-04-09T13:30:13;102090.38;;;21.42;49.73